Flight Track Log - Related Links

Times and Time Zones

All times are in EDT time to prevent confusion due to time zone crossing. See the C-GWFB flight status page for this flight to view local times or setup timezone preferences in your user account.

Time Position Orientation Groundspeed Altitude Reporting Facility
EDT Latitude Longitude Course Direction KTS MPH feet Rate Location/Type
Sun 01:13:00 PM 45.6662 -82.2991 126° Southeast  Level FlightAware Approximate
Sun 01:14:00 PM 45.6477 -82.2621 126° Southeast  Level FlightAware Approximate
Sun 01:15:00 PM 45.6282 -82.2264 137° Southeast  Level FlightAware Approximate
Sun 01:15:50 PM 45.5333 -82.1000 139° Southeast 100 115 7,200  Level Toronto Center
Sun 01:16:00 PM 45.6049 -82.1954 137° Southeast  Level FlightAware Approximate
Sun 01:16:50 PM 45.5167 -82.0833 145° Southeast 100 115 7,700  Level Toronto Center
Sun 01:17:00 PM 45.5816 -82.1643 137° Southeast  Level FlightAware Approximate
Sun 01:18:00 PM 45.5584 -82.1333 137° Southeast  Level FlightAware Approximate
Sun 01:18:50 PM 45.4833 -82.0333 134° Southeast 100 115 8,600  Level Toronto Center
Sun 01:19:00 PM 45.5351 -82.1023 137° Southeast  Level FlightAware Approximate
Sun 01:19:50 PM 45.4500 -82.0167 161° South 100 115 8,900  Level Toronto Center
Sun 01:20:00 PM 45.5113 -82.0722 139° Southeast  Level FlightAware Approximate
Sun 01:20:50 PM 45.4333 -81.9833 125° Southeast 100 115 9,000  Level Toronto Center
Sun 01:21:00 PM 45.4874 -82.0422 139° Southeast  Level FlightAware Approximate
Sun 01:21:50 PM 45.4333 -81.9667 90° East 120 138 9,000  Level Toronto Center
Sun 01:22:50 PM 45.4000 -81.9167 134° Southeast 120 138 9,000 50 Level Toronto Center
Sun 01:23:50 PM 45.3667 -81.8833 145° Southeast 120 138 9,100 50 Climbing Toronto Center
Sun 01:24:50 PM 45.3500 -81.8667 145° Southeast 120 138 9,100  Level Toronto Center
Sun 01:25:50 PM 45.3167 -81.8167 133° Southeast 120 138 9,100  Level Toronto Center
Sun 01:26:50 PM 45.3000 -81.7833 125° Southeast 120 138 9,100  Level Toronto Center
Sun 01:27:50 PM 45.2667 -81.7667 161° South 130 150 9,100  Level Toronto Center
Sun 01:28:50 PM 45.2500 -81.7167 115° Southeast 120 138 9,100  Level Toronto Center
Sun 01:29:50 PM 45.2167 -81.6833 145° Southeast 130 150 9,100  Level Toronto Center
Sun 01:30:49 PM 45.1833 -81.6667 161° South 120 138 9,100  Level Toronto Center
Sun 01:31:49 PM 45.1667 -81.6167 115° Southeast 130 150 9,100  Level Toronto Center
Sun 01:32:49 PM 45.1333 -81.6000 161° South 120 138 9,100  Level Toronto Center
Sun 01:33:49 PM 45.1167 -81.5500 115° Southeast 120 138 9,100  Level Toronto Center
Sun 01:34:49 PM 45.0833 -81.5167 145° Southeast 120 138 9,100  Level Toronto Center
Sun 01:35:49 PM 45.0500 -81.5000 161° South 130 150 9,100  Level Toronto Center
Sun 01:36:49 PM 45.0333 -81.4500 115° Southeast 130 150 9,100  Level Toronto Center
Sun 01:37:49 PM 45.0000 -81.4167 145° Southeast 130 150 9,100  Level Toronto Center
Sun 01:38:49 PM 44.9833 -81.4000 145° Southeast 120 138 9,100  Level Toronto Center
Sun 01:39:49 PM 44.9500 -81.3500 133° Southeast 120 138 9,100  Level Toronto Center
Sun 01:40:50 PM 44.9167 -81.3333 161° South 120 138 9,100  Level Toronto Center
Sun 01:41:50 PM 44.9000 -81.3000 125° Southeast 120 138 9,100  Level Toronto Center
Sun 01:42:50 PM 44.8667 -81.2500 133° Southeast 130 150 9,100  Level Toronto Center
Sun 01:43:50 PM 44.8500 -81.2333 145° Southeast 130 150 9,100  Level Toronto Center
Sun 01:45:00 PM 44.8212 -81.2003 141° Southeast  Level FlightAware Approximate
Sun 01:47:33 PM 44.7500 -81.1167 161° South 130 150 9,100  Level Toronto Center
Sun 01:48:34 PM 44.7167 -81.0667 133° Southeast 130 150 9,100  Level Toronto Center
Sun 01:49:33 PM 44.6833 -81.0333 145° Southeast 130 150 9,100  Level Toronto Center
Sun 01:50:33 PM 44.6500 -81.0333 180° South 120 138 9,100  Level Toronto Center
Sun 01:51:33 PM 44.6167 -81.0333 180° South 120 138 9,100  Level Toronto Center
Sun 01:52:00 PM 44.6298 -81.0485 161° South  Level FlightAware Approximate
Sun 01:52:33 PM 44.5833 -81.0167 160° South 130 150 9,100  Level Toronto Center
Sun 01:53:34 PM 44.5500 -80.9833 145° Southeast 120 138 9,100  Level Toronto Center
Sun 01:54:34 PM 44.5167 -80.9833 180° South 130 150 9,100  Level Toronto Center
Sun 01:55:34 PM 44.4833 -80.9667 160° South 130 150 9,100  Level Toronto Center
Sun 01:56:34 PM 44.4500 -80.9333 144° Southeast 120 138 9,100  Level Toronto Center
Sun 01:57:34 PM 44.4167 -80.9333 180° South 120 138 9,100  Level Toronto Center
Sun 01:58:34 PM 44.3833 -80.9167 160° South 120 138 9,100  Level Toronto Center
Sun 01:59:34 PM 44.3500 -80.9167 180° South 110 127 9,100  Level Toronto Center
Sun 02:00:34 PM 44.3333 -80.8833 125° Southeast 110 127 9,100  Level Toronto Center
Sun 02:01:34 PM 44.3000 -80.8833 180° South 110 127 9,100  Level Toronto Center
Sun 02:02:34 PM 44.2667 -80.8667 160° South 110 127 9,100  Level Toronto Center
Sun 02:03:34 PM 44.2333 -80.8500 160° South 110 127 9,100  Level Toronto Center
Sun 02:04:34 PM 44.2167 -80.8500 180° South 120 138 9,100 -50 Level Toronto Center
Sun 02:05:34 PM 44.2000 -80.8167 125° Southeast 120 138 9,000 -50 Descending Toronto Center
Sun 02:06:34 PM 44.1667 -80.8167 180° South 120 138 9,000  Level Toronto Center
Sun 02:07:34 PM 44.1333 -80.8000 160° South 120 138 9,000  Level Toronto Center
Sun 02:08:34 PM 44.1000 -80.7667 144° Southeast 120 138 9,000  Level Toronto Center
Sun 02:09:34 PM 44.0667 -80.7667 180° South 120 138 9,000  Level Toronto Center
Sun 02:10:34 PM 44.0333 -80.7500 160° South 120 138 9,000  Level Toronto Center
Sun 02:11:34 PM 44.0167 -80.7500 180° South 110 127 9,000  Level Toronto Center
Sun 02:12:34 PM 43.9833 -80.7167 144° Southeast 110 127 9,000  Level Toronto Center
Sun 02:13:34 PM 43.9500 -80.7000 160° South 110 127 9,000  Level Toronto Center
Sun 02:14:34 PM 43.9167 -80.7000 180° South 110 127 9,000  Level Toronto Center
Sun 02:15:34 PM 43.8833 -80.6667 144° Southeast 110 127 9,000  Level Toronto Center
Sun 02:16:34 PM 43.8667 -80.6667 180° South 110 127 9,000  Level Toronto Center
Sun 02:17:34 PM 43.8333 -80.6500 160° South 110 127 9,000  Level Toronto Center
Sun 02:18:34 PM 43.8000 -80.6333 160° South 110 127 9,000  Level Toronto Center
Sun 02:19:34 PM 43.7833 -80.6333 180° South 110 127 9,000  Level Toronto Center
Sun 02:20:34 PM 43.7500 -80.6000 144° Southeast 110 127 9,000  Level Toronto Center
Sun 02:21:34 PM 43.7167 -80.6000 180° South 110 127 9,000  Level Toronto Center
Sun 02:22:34 PM 43.6833 -80.5833 160° South 110 127 9,000 -200 Level Toronto Center
Sun 02:23:34 PM 43.6667 -80.5833 180° South 110 127 8,600 -450 Descending Toronto Center
Sun 02:24:34 PM 43.6333 -80.5500 144° Southeast 120 138 8,100 -400 Descending Toronto Center
Sun 02:25:34 PM 43.6000 -80.5500 180° South 120 138 7,800 -300 Descending Toronto Center
Sun 02:26:34 PM 43.5667 -80.5333 160° South 130 150 7,500 -300 Descending Toronto Center
Sun 02:27:34 PM 43.5333 -80.5000 144° Southeast 130 150 7,200 -300 Descending Toronto Center
Sun 02:28:34 PM 43.4833 -80.5000 180° South 130 150 6,900 -454 Descending Toronto Center
Sun 02:29:33 PM 43.4500 -80.4833 160° South 140 161 6,300 -600 Descending Toronto Center
Sun 02:30:34 PM 43.4167 -80.4667 160° South 140 161 5,700 -595 Descending Toronto Center
Sun 02:31:34 PM 43.3833 -80.4333 144° Southeast 140 161 5,100 -750 Descending Toronto Center
Sun 02:32:34 PM 43.3500 -80.4333 180° South 140 161 4,200 -1,050 Descending Toronto Center
Sun 02:33:34 PM 43.3000 -80.4167 166° South 150 173 3,000 -1,000 Descending Toronto Center
Sun 02:34:34 PM 43.2667 -80.3833 144° Southeast 160 184 2,200 -800 Descending Toronto Center

Login

Don't have an account? Register now (free) for customized features, flight alerts, and more!